createdAt,value
2023-01-06T00:03:35.571Z,4.59
2023-01-06T00:08:37.592Z,4.61
2023-01-06T00:13:40.386Z,4.58
2023-01-06T00:18:42.417Z,4.57
2023-01-06T00:23:44.136Z,4.65
2023-01-06T00:28:45.614Z,4.66
2023-01-06T00:33:47.095Z,4.76
2023-01-06T00:38:49.994Z,4.69
2023-01-06T00:43:51.490Z,4.76
2023-01-06T00:49:04.197Z,4.67
2023-01-06T00:54:08.463Z,4.69
2023-01-06T00:59:11.931Z,4.70
2023-01-06T01:04:14.081Z,4.73
2023-01-06T01:09:24.333Z,4.76
2023-01-06T01:14:25.842Z,4.73
2023-01-06T01:19:28.192Z,4.85
2023-01-06T01:24:29.873Z,4.84
2023-01-06T01:29:31.336Z,4.75
2023-01-06T01:34:32.917Z,4.80
2023-01-06T01:39:34.408Z,4.90
2023-01-06T01:44:58.966Z,4.94
2023-01-06T01:50:09.649Z,4.96
2023-01-06T01:55:12.584Z,4.98
2023-01-06T02:00:14.650Z,5.02
2023-01-06T02:05:21.284Z,5.07
2023-01-06T02:10:24.400Z,5.18
2023-01-06T02:15:31.692Z,5.21
2023-01-06T02:21:01.007Z,5.25
2023-01-06T02:26:11.499Z,5.20
2023-01-06T02:31:37.623Z,5.23
2023-01-06T02:36:52.730Z,5.27
2023-01-06T02:42:01.465Z,5.28
2023-01-06T02:47:24.185Z,5.38
2023-01-06T02:52:40.895Z,5.43
2023-01-06T02:57:49.382Z,5.44
2023-01-06T03:02:57.702Z,5.50
2023-01-06T03:08:02.282Z,5.51
2023-01-06T03:13:15.802Z,5.61
2023-01-06T03:18:17.745Z,5.62
2023-01-06T03:23:20.247Z,5.70
2023-01-06T03:28:21.706Z,5.81
2023-01-06T03:33:37.843Z,5.88
2023-01-06T03:38:52.314Z,5.87
2023-01-06T03:44:05.623Z,6.00
2023-01-06T03:49:36.051Z,6.02
2023-01-06T03:54:52.380Z,6.14
2023-01-06T04:00:03.482Z,6.14
2023-01-06T04:05:10.553Z,6.18
2023-01-06T04:10:16.028Z,6.31
2023-01-06T04:15:23.434Z,6.31
2023-01-06T04:20:28.137Z,6.41
2023-01-06T04:25:29.560Z,6.45
2023-01-06T04:30:31.089Z,6.45
2023-01-06T04:35:32.542Z,6.44
2023-01-06T04:40:34.032Z,6.51
2023-01-06T04:45:35.629Z,6.62
2023-01-06T04:50:38.202Z,6.64
2023-01-06T04:55:40.873Z,6.69
2023-01-06T05:00:42.384Z,6.75
2023-01-06T05:05:43.883Z,6.80
2023-01-06T05:10:45.355Z,6.92
2023-01-06T05:15:46.774Z,6.97
2023-01-06T05:20:55.162Z,7.07
2023-01-06T05:25:56.834Z,7.11
2023-01-06T05:31:02.803Z,7.15
2023-01-06T05:36:08.143Z,7.17
2023-01-06T05:41:09.585Z,7.18
2023-01-06T05:46:12.611Z,7.29
2023-01-06T05:51:16.203Z,7.40
2023-01-06T05:56:19.559Z,7.52
2023-01-06T06:01:31.593Z,7.61
2023-01-06T06:06:33.202Z,7.68
2023-01-06T06:11:34.630Z,7.74
2023-01-06T06:16:36.483Z,7.82
2023-01-06T06:21:37.971Z,7.80
2023-01-06T06:26:39.446Z,7.87
2023-01-06T06:31:40.946Z,7.70
2023-01-06T06:36:42.441Z,7.79
2023-01-06T06:41:44.030Z,7.89
2023-01-06T06:46:45.493Z,7.92
2023-01-06T06:51:47.467Z,7.96
2023-01-06T06:56:48.935Z,8.01
2023-01-06T07:01:50.521Z,8.00
2023-01-06T07:06:52.060Z,7.99
2023-01-06T07:11:53.506Z,7.96
2023-01-06T07:16:54.907Z,8.12
2023-01-06T07:21:56.391Z,8.03
2023-01-06T07:26:57.910Z,8.07
2023-01-06T07:31:59.774Z,8.06
2023-01-06T07:37:01.270Z,8.04
2023-01-06T07:42:02.704Z,8.05
2023-01-06T07:47:04.265Z,8.05
2023-01-06T07:52:05.790Z,8.01
2023-01-06T07:57:07.253Z,8.01
2023-01-06T08:02:11.407Z,8.00
2023-01-06T08:07:13.579Z,7.96
2023-01-06T08:12:15.014Z,7.99
2023-01-06T08:17:16.547Z,7.99
2023-01-06T08:22:18.065Z,8.06
2023-01-06T08:27:20.664Z,8.07
2023-01-06T08:32:22.385Z,8.02
2023-01-06T08:37:23.903Z,8.06
2023-01-06T08:42:25.421Z,8.05
2023-01-06T08:47:26.919Z,8.14
2023-01-06T08:52:28.390Z,8.14
2023-01-06T08:57:29.883Z,8.12
2023-01-06T09:02:31.529Z,8.12
2023-01-06T09:07:32.956Z,8.20
2023-01-06T09:12:34.899Z,8.15
2023-01-06T09:17:36.369Z,8.13
2023-01-06T09:22:37.878Z,8.17
2023-01-06T09:27:39.353Z,8.25
2023-01-06T09:32:40.797Z,8.28
2023-01-06T09:37:42.263Z,8.29
2023-01-06T09:43:13.181Z,8.28
2023-01-06T09:48:21.791Z,8.27
2023-01-06T09:53:30.200Z,8.23
2023-01-06T09:58:37.983Z,8.26
2023-01-06T10:03:39.548Z,8.15
2023-01-06T10:09:07.606Z,10.42
2023-01-06T10:14:19.298Z,11.04
2023-01-06T10:19:42.638Z,12.45
2023-01-06T10:25:02.824Z,14.82
2023-01-06T10:30:16.169Z,15.62
2023-01-06T10:35:21.971Z,16.24
2023-01-06T10:40:26.107Z,17.64
2023-01-06T10:45:45.273Z,16.95
2023-01-06T10:50:47.505Z,14.14
2023-01-06T10:56:00.262Z,10.67
2023-01-06T11:01:10.286Z,9.33
2023-01-06T11:06:17.655Z,8.96
2023-01-06T11:11:27.981Z,8.48
2023-01-06T11:16:32.180Z,8.27
2023-01-06T11:21:40.581Z,8.23
2023-01-06T11:26:51.872Z,8.47
2023-01-06T11:31:54.006Z,8.44
2023-01-06T11:36:55.881Z,8.80
2023-01-06T11:42:04.047Z,8.53
2023-01-06T11:47:13.436Z,8.18
2023-01-06T11:52:17.758Z,8.17
2023-01-06T11:57:26.874Z,8.07
2023-01-06T12:02:49.729Z,7.96
2023-01-06T12:07:55.433Z,8.03
2023-01-06T12:12:56.906Z,7.95
2023-01-06T12:18:00.842Z,7.93
2023-01-06T12:23:16.267Z,7.88
2023-01-06T12:28:34.195Z,7.81
2023-01-06T12:34:03.462Z,7.83
2023-01-06T12:39:31.324Z,7.86
2023-01-06T12:44:38.960Z,7.67
2023-01-06T12:49:50.617Z,7.66
2023-01-06T12:54:56.057Z,7.68
2023-01-06T13:00:22.917Z,7.81
2023-01-06T13:06:00.733Z,7.87
2023-01-06T13:11:24.906Z,7.82
2023-01-06T13:16:29.382Z,7.84
2023-01-06T13:21:31.656Z,7.70
2023-01-06T13:26:57.954Z,7.68
2023-01-06T13:32:17.263Z,7.70
2023-01-06T13:37:38.672Z,7.62
2023-01-06T13:43:00.695Z,7.53
2023-01-06T13:48:08.999Z,7.48
2023-01-06T13:53:18.850Z,7.43
2023-01-06T13:58:23.153Z,7.31
2023-01-06T14:03:24.810Z,7.22
2023-01-06T14:08:30.385Z,7.18
2023-01-06T14:13:39.935Z,7.13
2023-01-06T14:18:53.059Z,7.00
2023-01-06T14:24:03.065Z,6.87
2023-01-06T14:29:44.931Z,6.81
2023-01-06T14:35:14.273Z,6.81
2023-01-06T14:40:29.249Z,6.76
2023-01-06T14:45:41.034Z,6.73
2023-01-06T14:50:47.837Z,6.65
2023-01-06T14:55:50.422Z,6.72
2023-01-06T15:00:53.640Z,6.77
2023-01-06T15:06:20.151Z,6.75
2023-01-06T15:11:33.277Z,6.78
2023-01-06T15:16:39.942Z,6.72
2023-01-06T15:21:43.687Z,6.75
2023-01-06T15:26:45.273Z,6.71
2023-01-06T15:31:49.425Z,6.75
2023-01-06T15:36:54.688Z,6.68
2023-01-06T15:41:57.630Z,6.69
2023-01-06T15:47:11.062Z,6.65
2023-01-06T15:52:27.638Z,6.67
2023-01-06T15:57:35.322Z,6.71
2023-01-06T16:02:37.389Z,6.55
2023-01-06T16:07:41.842Z,6.39
2023-01-06T16:12:43.342Z,6.40
2023-01-06T16:17:46.379Z,6.38
2023-01-06T16:22:55.909Z,6.45
2023-01-06T16:28:00.135Z,6.34
2023-01-06T16:33:02.438Z,6.41
2023-01-06T16:38:04.022Z,6.51
2023-01-06T16:43:05.526Z,6.53
2023-01-06T16:48:07.128Z,6.53
2023-01-06T16:53:24.177Z,6.45
2023-01-06T16:58:29.209Z,6.44
2023-01-06T17:03:34.838Z,6.36
2023-01-06T17:08:38.473Z,6.42
2023-01-06T17:13:45.843Z,6.20
2023-01-06T17:18:54.670Z,6.17
2023-01-06T17:24:05.261Z,6.01
2023-01-06T17:29:14.215Z,6.14
2023-01-06T17:34:21.357Z,6.21
2023-01-06T17:39:26.484Z,6.26
2023-01-06T17:44:37.439Z,6.31
2023-01-06T17:49:38.938Z,6.37
2023-01-06T17:54:59.260Z,6.40
2023-01-06T18:00:02.125Z,6.42
2023-01-06T18:05:33.429Z,6.28
2023-01-06T18:10:37.692Z,6.23
2023-01-06T18:15:39.271Z,6.29
2023-01-06T18:20:40.749Z,6.15
2023-01-06T18:25:42.268Z,6.10
2023-01-06T18:30:46.296Z,6.17
2023-01-06T18:35:52.053Z,6.12
2023-01-06T18:40:54.724Z,5.99
2023-01-06T18:46:01.084Z,5.95
2023-01-06T18:51:06.630Z,5.91
2023-01-06T18:56:18.221Z,5.85
2023-01-06T19:01:30.366Z,5.92
2023-01-06T19:06:50.696Z,5.95
2023-01-06T19:12:16.009Z,5.95
2023-01-06T19:17:40.981Z,5.99
2023-01-06T19:22:43.096Z,6.08
2023-01-06T19:27:54.925Z,6.04
2023-01-06T19:33:18.096Z,6.19
2023-01-06T19:38:26.408Z,6.23
2023-01-06T19:43:32.110Z,6.16
2023-01-06T19:48:41.309Z,6.25
2023-01-06T19:53:45.158Z,6.12
2023-01-06T19:58:52.143Z,6.06
2023-01-06T20:03:55.183Z,5.96
2023-01-06T20:08:56.651Z,5.91
2023-01-06T20:13:58.194Z,5.84
2023-01-06T20:18:59.793Z,5.64
2023-01-06T20:24:01.233Z,5.54
2023-01-06T20:29:04.433Z,5.47
2023-01-06T20:34:05.989Z,5.45
2023-01-06T20:39:07.491Z,5.28
2023-01-06T20:44:08.941Z,5.12
2023-01-06T20:49:11.849Z,5.00
2023-01-06T20:54:13.298Z,4.91
2023-01-06T20:59:14.807Z,4.85
2023-01-06T21:04:16.423Z,4.70
2023-01-06T21:09:18.100Z,4.59
2023-01-06T21:14:19.682Z,4.61
2023-01-06T21:19:21.133Z,4.45
2023-01-06T21:24:22.633Z,4.38
2023-01-06T21:29:24.150Z,4.42
2023-01-06T21:34:25.638Z,4.47
2023-01-06T21:39:27.203Z,4.35
2023-01-06T21:44:28.723Z,4.26
2023-01-06T21:49:30.991Z,4.22
2023-01-06T21:54:32.849Z,4.35
2023-01-06T21:59:34.430Z,4.33
2023-01-06T22:04:35.871Z,4.23
2023-01-06T22:09:40.494Z,4.20
2023-01-06T22:14:42.810Z,4.15
2023-01-06T22:19:46.089Z,4.06
2023-01-06T22:24:49.227Z,4.00
2023-01-06T22:29:50.804Z,4.04
2023-01-06T22:34:52.221Z,3.95
2023-01-06T22:39:53.710Z,4.03
2023-01-06T22:44:55.191Z,3.90
2023-01-06T22:49:57.519Z,3.92
2023-01-06T22:54:59.022Z,3.86
2023-01-06T23:00:00.623Z,3.87
2023-01-06T23:05:03.496Z,3.93
2023-01-06T23:10:05.498Z,3.89
2023-01-06T23:15:08.168Z,3.75
2023-01-06T23:20:10.322Z,3.70
2023-01-06T23:25:12.751Z,3.70
2023-01-06T23:30:14.276Z,3.73
2023-01-06T23:35:15.755Z,3.71
2023-01-06T23:40:17.409Z,3.62
2023-01-06T23:45:18.911Z,3.68
2023-01-06T23:50:20.362Z,3.59
2023-01-06T23:55:21.839Z,3.63
